Tonasket, WA (98855)

3:49 PM PDT on August 28, 2016 (GMT -0700)
Sinlahekin Wildlife Area | | Change Station

Elev 1539 ft 48.75 °N, 119.65 °W | Updated 24 seconds ago

Partly Cloudy
Partly Cloudy
81.0 °F
Feels Like 80 °F
N
4.0
Wind Variable Wind from SSW
Gusts 10.0 mph

Today
High -- | Low -- °F
--% Chance of Precip.
Yesterday
High -- | Low -- °F
Precip. -- in
Pressure 29.98 in
Visibility 10.0 miles
Clouds Few 12000 ft
Heat Index 80 °F
Dew Point 43 °F
Humidity 26%
Rainfall 0.00 in
Snow Depth Not available.
6:09 AM 7:46 PM
Waning Crescent, 13% visible
METAR KOMK 282153Z AUTO 21013KT 10SM FEW120 28/04 A3000 RMK AO2 SLP152 T02780039 $
Pressure 29.98 in
Visibility 10.0 miles
Clouds Few 12000 ft
Heat Index 80 °F
Dew Point 43 °F
Humidity 26%
Rainfall 0.00 in
Snow Depth Not available.
6:09 AM 7:46 PM
Waning Crescent, 13% visible
METAR KOMK 282153Z AUTO 21013KT 10SM FEW120 28/04 A3000 RMK AO2 SLP152 T02780039 $

10-Day Weather Forecast

Almanac

Astronomy

Aug. 28, 2016 Rise Set
Actual Time
Civil Twilight
Nautical Twilight
Astronomical Twilight
Moon
Length of Visible Light
Length of Day
Tomorrow will be .
, % of the Moon is Illuminated

Today's Extremes

State Highs State Lows

Community

WunderPhotos

Upload Photos

1,935,705 photos uploaded!

WunderBlog® & News

Nearby

Air Quality

  Air Quality AQ Index Pollutant
Not available.

Snow Depth

Station Depth Elevation

Earthquake Activity

City Distance Mag. Time & Date
Minimum magnitude displayed is 2.5.

Coastal Water Temperatures

Place Temperature

Stations

Nearby Weather Stations

Station Location Temp. Windchill Dew Point Humidity Wind Precip. Elev Updated Type
                   

Watches & Warnings

There are currently no watches in effect.